Time;durP1;ratioP1;P1;durP2;ratioP2;P2;SDS_P1;SDS_P2;PMS_P1;PMS_P2;Temp;Humidity;BMP_temperature;BMP_pressure;BME280_temperature;BME280_humidity;BME280_pressure;Samples;Min_cycle;Max_cycle;Signal;HPM_P1;HPM_P2
2021/12/12 00:02:27;;;;;;;;;34.00;24.75;;;;;7.69;75.19;101988.88;5017478;28;45450;-57
2021/12/12 00:04:54;;;;;;;;;25.00;21.00;;;;;7.67;75.02;101985.47;5016650;28;45318;-56
2021/12/12 00:07:30;;;;;;;;;35.50;24.00;;;;;7.66;74.96;101978.47;5017507;28;45288;-56
2021/12/12 00:10:04;;;;;;;;;30.75;24.25;;;;;7.66;75.74;101978.47;5017209;28;45387;-55
2021/12/12 00:12:32;;;;;;;;;28.25;25.50;;;;;7.64;75.30;101971.59;5016253;28;45347;-56
2021/12/12 00:14:58;;;;;;;;;29.75;23.50;;;;;7.59;75.97;101966.56;5016806;28;45619;-56
2021/12/12 00:17:26;;;;;;;;;36.25;26.75;;;;;7.62;76.17;101970.81;5017375;28;45406;-58
2021/12/12 00:19:51;;;;;;;;;27.00;24.25;;;;;7.43;78.11;101945.50;4999238;28;46399;-58
2021/12/12 00:22:22;;;;;;;;;30.00;24.50;;;;;7.56;77.69;101969.41;5016889;28;45529;-46
2021/12/12 00:24:48;;;;;;;;;36.75;28.50;;;;;7.54;77.57;101968.66;5017235;28;45350;-56
2021/12/12 00:27:15;;;;;;;;;30.25;27.00;;;;;7.55;77.13;101970.38;5016926;28;45226;-46
2021/12/12 00:29:40;;;;;;;;;26.75;24.25;;;;;7.54;78.06;101965.16;5016857;28;46005;-47
2021/12/12 00:32:10;;;;;;;;;25.00;23.50;;;;;7.52;78.01;101965.25;5016833;28;45413;-45
2021/12/12 00:34:42;;;;;;;;;31.00;26.00;;;;;7.47;78.29;101964.72;5017031;28;45252;-45
2021/12/12 00:37:09;;;;;;;;;31.75;25.00;;;;;7.42;79.97;101961.50;5017066;28;45409;-55
2021/12/12 00:39:38;;;;;;;;;27.25;22.50;;;;;7.44;79.36;101962.25;5016872;28;47269;-44
2021/12/12 00:42:26;;;;;;;;;28.75;20.00;;;;;7.47;78.03;101956.75;5016722;28;45481;-46
2021/12/12 00:44:57;;;;;;;;;19.75;15.25;;;;;7.43;78.33;101956.09;5016867;28;45639;-50
2021/12/12 00:47:24;;;;;;;;;16.75;14.25;;;;;7.41;78.99;101965.06;5016851;28;45239;-47
2021/12/12 00:49:50;;;;;;;;;26.75;20.75;;;;;7.36;79.24;101953.94;5016685;28;45586;-55
2021/12/12 00:52:18;;;;;;;;;17.50;15.50;;;;;7.33;79.70;101957.63;5016556;28;45310;-55
2021/12/12 00:54:44;;;;;;;;;26.50;21.50;;;;;7.35;79.68;101960.19;5016942;28;45324;-47
2021/12/12 00:57:13;;;;;;;;;21.50;16.75;;;;;7.30;79.20;101949.88;5016876;28;45334;-46
2021/12/12 00:59:40;;;;;;;;;29.50;21.25;;;;;7.33;80.53;101959.41;5016088;28;47237;-56
2021/12/12 01:02:09;;;;;;;;;19.25;19.25;;;;;7.32;79.37;101955.06;5017892;28;45538;-56
2021/12/12 01:04:44;;;;;;;;;25.00;15.25;;;;;7.30;79.41;101959.63;5020089;28;45264;-45
2021/12/12 01:07:16;;;;;;;;;22.75;18.75;;;;;7.33;79.85;101952.34;5020127;28;45323;-47
2021/12/12 01:09:56;;;;;;;;;21.25;19.50;;;;;7.35;79.38;101949.59;5019712;28;45361;-44
2021/12/12 01:12:28;;;;;;;;;20.00;15.50;;;;;7.33;79.57;101941.75;5019982;28;45242;-47
2021/12/12 01:15:06;;;;;;;;;26.25;18.75;;;;;7.33;79.71;101948.81;5019675;28;45795;-50
2021/12/12 01:17:39;;;;;;;;;16.75;13.75;;;;;7.37;80.20;101947.69;5019948;28;45539;-48
2021/12/12 01:20:14;;;;;;;;;15.00;12.00;;;;;7.38;81.38;101942.31;5019672;28;47264;-57
2021/12/12 01:22:40;;;;;;;;;20.00;16.00;;;;;7.38;81.68;101938.81;5019722;28;45271;-46
2021/12/12 01:25:14;;;;;;;;;16.50;13.50;;;;;7.36;80.34;101943.34;5019665;28;45501;-47
2021/12/12 01:27:40;;;;;;;;;19.50;14.50;;;;;7.40;81.03;101948.34;5019962;28;45394;-56
2021/12/12 01:30:08;;;;;;;;;20.25;15.00;;;;;7.40;80.84;101945.69;5019426;28;46216;-49
2021/12/12 01:32:34;;;;;;;;;12.50;11.75;;;;;7.43;80.85;101955.25;5019510;28;45379;-46
2021/12/12 01:35:01;;;;;;;;;14.50;11.75;;;;;7.44;80.49;101941.06;5019543;28;45366;-53
2021/12/12 01:40:13;;;;;;;;;16.25;15.00;;;;;7.45;80.49;101945.41;5019338;28;46185;-49
2021/12/12 01:42:38;;;;;;;;;15.50;12.75;;;;;7.53;80.43;101959.00;5019061;28;45360;-54
2021/12/12 01:45:10;;;;;;;;;17.00;13.25;;;;;7.52;79.05;101959.97;5019363;28;45334;-53
2021/12/12 01:47:46;;;;;;;;;18.00;12.75;;;;;7.49;81.37;101957.50;5019889;28;45333;-47
2021/12/12 01:50:17;;;;;;;;;13.00;12.25;;;;;7.55;80.65;101964.22;5019303;28;45456;-48
2021/12/12 01:52:45;;;;;;;;;19.00;14.25;;;;;7.55;81.19;101965.06;5019471;28;45295;-46
2021/12/12 01:55:21;;;;;;;;;14.25;11.00;;;;;7.57;80.49;101970.25;5019400;28;45307;-46
2021/12/12 01:57:47;;;;;;;;;15.75;12.00;;;;;7.55;81.23;101949.19;5019409;28;45334;-58
2021/12/12 02:00:26;;;;;;;;;13.75;9.75;;;;;7.60;80.36;101968.28;5018902;28;46952;-55
2021/12/12 02:02:52;;;;;;;;;12.50;10.00;;;;;7.61;81.63;101971.78;5019506;28;45446;-46
2021/12/12 02:05:20;;;;;;;;;12.50;8.00;;;;;7.59;80.88;101971.03;5019203;28;45345;-48
2021/12/12 02:07:55;;;;;;;;;14.75;12.00;;;;;7.59;81.73;101973.69;5019352;28;45370;-46
2021/12/12 02:10:27;;;;;;;;;14.75;13.50;;;;;7.63;81.98;101980.47;5019013;28;46356;-47
2021/12/12 02:12:53;;;;;;;;;13.25;11.50;;;;;7.65;81.89;101984.72;5001382;28;45354;-45
2021/12/12 02:15:19;;;;;;;;;9.75;9.50;;;;;7.67;81.65;101985.47;5018446;28;45252;-46
2021/12/12 02:17:48;;;;;;;;;15.25;14.00;;;;;7.66;81.99;101980.25;5019288;28;45342;-45
2021/12/12 02:20:38;;;;;;;;;16.25;12.75;;;;;7.67;80.52;101982.00;5018747;28;47245;-47
2021/12/12 02:36:41;;;;;;;;;10.00;10.00;;;;;7.83;81.16;101985.34;5018893;28;45402;-46
2021/12/12 02:39:15;;;;;;;;;15.50;11.50;;;;;7.86;81.46;101997.53;5019169;28;45351;-45
2021/12/12 02:41:43;;;;;;;;;13.00;11.00;;;;;7.84;81.64;101992.34;5018608;28;47185;-46
2021/12/12 02:44:08;;;;;;;;;10.50;9.00;;;;;7.88;81.53;101996.50;5018372;28;45478;-46
2021/12/12 02:46:36;;;;;;;;;14.25;12.25;;;;;7.88;80.74;101991.22;5018760;28;45242;-48
2021/12/12 02:49:12;;;;;;;;;15.00;14.25;;;;;7.88;81.04;101993.84;5018864;28;45256;-47
2021/12/12 02:51:42;;;;;;;;;13.00;10.25;;;;;7.87;81.08;101993.94;5017965;28;45659;-47
2021/12/12 02:54:09;;;;;;;;;12.00;9.25;;;;;7.87;80.93;101994.78;5018469;28;45307;-47
2021/12/12 02:56:47;;;;;;;;;9.50;8.25;;;;;7.90;81.71;101999.03;5018615;28;45270;-45
2021/12/12 02:59:16;;;;;;;;;17.25;13.50;;;;;7.91;81.15;102001.59;5018483;28;45322;-46
2021/12/12 03:01:56;;;;;;;;;13.25;12.25;;;;;7.92;81.72;101999.78;5018292;28;45381;-45
2021/12/12 03:04:23;;;;;;;;;9.75;9.50;;;;;7.96;81.68;102003.94;5018389;28;45240;-47
2021/12/12 03:06:49;;;;;;;;;23.00;14.00;;;;;7.90;81.66;101991.09;5018350;28;45339;-52
2021/12/12 03:09:22;;;;;;;;;8.50;7.50;;;;;7.96;81.31;102012.75;5018427;28;45418;-46
2021/12/12 03:11:57;;;;;;;;;10.25;10.25;;;;;7.95;81.30;101996.94;5017665;28;45342;-46
2021/12/12 03:14:23;;;;;;;;;9.00;9.00;;;;;7.98;81.10;102005.56;5017815;28;45508;-46
2021/12/12 03:16:49;;;;;;;;;11.00;11.00;;;;;7.97;82.31;102008.31;5000299;28;45298;-46
2021/12/12 03:19:19;;;;;;;;;9.75;9.25;;;;;7.98;81.45;102007.34;5018478;28;45515;-46
2021/12/12 03:21:45;;;;;;;;;13.75;13.75;;;;;7.98;82.09;102002.06;5017499;28;45387;-46
2021/12/12 03:24:20;;;;;;;;;13.25;9.50;;;;;7.99;81.43;102003.75;5017919;28;45294;-46
2021/12/12 03:26:49;;;;;;;;;17.50;11.00;;;;;8.00;81.62;102008.09;5017080;28;45303;-45
2021/12/12 03:29:14;;;;;;;;;9.50;9.00;;;;;8.03;81.61;102009.69;5018109;28;45305;-48
2021/12/12 03:31:44;;;;;;;;;14.25;12.75;;;;;8.04;81.69;102001.66;5017705;28;45537;-49
2021/12/12 03:34:13;;;;;;;;;10.00;7.25;;;;;8.10;82.08;102011.03;5000483;28;45412;-48
2021/12/12 03:36:39;;;;;;;;;13.25;10.00;;;;;8.12;81.19;102007.28;5017853;28;45740;-47
2021/12/12 03:39:10;;;;;;;;;10.25;7.25;;;;;8.06;82.04;102002.41;5017883;28;45461;-45
2021/12/12 03:41:40;;;;;;;;;14.75;9.00;;;;;8.14;81.16;102005.41;5017741;28;46306;-45
2021/12/12 03:44:09;;;;;;;;;14.00;10.00;;;;;8.18;81.47;102016.66;5017535;28;45356;-47
2021/12/12 03:46:36;;;;;;;;;11.25;9.75;;;;;8.19;81.65;102013.91;5017628;28;45305;-46
2021/12/12 03:49:03;;;;;;;;;9.00;9.00;;;;;8.19;81.18;102013.91;5017830;28;45385;-46
2021/12/12 03:51:29;;;;;;;;;11.75;9.25;;;;;8.20;81.62;102012.09;5017526;28;45376;-46
2021/12/12 03:53:56;;;;;;;;;9.50;7.50;;;;;8.18;82.15;102009.56;5017811;28;45348;-48
2021/12/12 03:56:22;;;;;;;;;12.50;10.50;;;;;8.19;81.20;102013.06;5017495;28;45876;-45
2021/12/12 03:58:48;;;;;;;;;9.25;9.00;;;;;8.19;81.14;102005.13;5017730;28;45319;-48
2021/12/12 04:01:27;;;;;;;;;15.75;9.50;;;;;8.14;80.48;102004.56;5017425;28;46285;-47
2021/12/12 04:03:55;;;;;;;;;15.75;10.00;;;;;8.21;80.90;102017.28;4999935;28;45491;-46
2021/12/12 04:06:25;;;;;;;;;17.25;8.50;;;;;8.21;82.26;102006.69;5017618;28;45411;-57
2021/12/12 04:08:53;;;;;;;;;9.50;9.50;;;;;8.19;81.13;102013.91;5017638;28;45447;-58
2021/12/12 04:11:27;;;;;;;;;9.75;8.00;;;;;8.20;81.01;102002.34;5017440;28;45248;-58
2021/12/12 04:13:54;;;;;;;;;16.75;10.00;;;;;8.24;81.62;102011.81;5017093;28;45418;-54
2021/12/12 04:16:21;;;;;;;;;14.50;9.00;;;;;8.29;81.67;102018.59;5017146;28;45466;-57
2021/12/12 04:18:46;;;;;;;;;14.25;9.00;;;;;8.31;81.90;102014.91;5017456;28;45633;-58
2021/12/12 04:21:13;;;;;;;;;10.00;8.50;;;;;8.34;80.85;102017.34;5016945;28;46112;-58
2021/12/12 04:23:39;;;;;;;;;10.50;9.50;;;;;8.32;80.93;102019.25;5017190;28;45390;-55
2021/12/12 04:26:14;;;;;;;;;9.25;8.75;;;;;8.29;81.71;102016.81;5017032;28;45220;-57
2021/12/12 04:28:40;;;;;;;;;16.25;9.50;;;;;8.33;81.39;102020.94;5017096;28;45512;-56
2021/12/12 04:31:06;;;;;;;;;12.00;9.00;;;;;8.35;82.10;102018.22;5016879;28;46124;-55
2021/12/12 04:33:31;;;;;;;;;12.50;9.75;;;;;8.36;81.39;102026.06;5016819;28;45268;-47
2021/12/12 04:35:57;;;;;;;;;14.00;10.00;;;;;8.36;81.01;102035.81;5017067;28;45307;-47
2021/12/12 04:38:23;;;;;;;;;13.00;11.50;;;;;8.35;81.14;102031.47;5016696;28;45540;-44
2021/12/12 04:40:48;;;;;;;;;13.75;11.50;;;;;8.37;80.83;102032.25;5016761;28;47080;-47
2021/12/12 04:43:14;;;;;;;;;5.75;5.75;;;;;8.38;82.02;102039.25;5017046;28;45275;-44
2021/12/12 04:46:20;;;;;;;;;12.25;11.75;;;;;8.39;80.69;102039.16;5016849;28;45551;-46
2021/12/12 04:51:32;;;;;;;;;14.75;14.00;;;;;8.40;81.14;102038.19;5016676;28;45322;-47
2021/12/12 04:54:31;;;;;;;;;10.50;9.00;;;;;8.42;81.19;102041.59;5016634;28;45365;-46
2021/12/12 04:57:07;;;;;;;;;14.25;13.50;;;;;8.46;80.99;102039.59;5016859;28;45473;-47
2021/12/12 04:59:45;;;;;;;;;16.00;9.25;;;;;8.44;81.50;102045.00;5016845;28;45223;-47
2021/12/12 05:02:19;;;;;;;;;14.00;13.50;;;;;8.46;81.13;102047.53;4998552;28;47681;-46
2021/12/12 05:05:03;;;;;;;;;20.25;12.75;;;;;8.47;81.54;102054.56;5016683;28;45191;-45
2021/12/12 05:07:53;;;;;;;;;15.75;12.00;;;;;8.45;82.05;102053.81;5016600;28;45360;-46
2021/12/12 05:10:24;;;;;;;;;19.75;14.50;;;;;8.41;81.67;102044.34;5016371;28;45435;-47
2021/12/12 05:13:17;;;;;;;;;16.00;13.75;;;;;8.47;81.97;102054.56;5016470;28;46257;-45
2021/12/12 05:15:47;;;;;;;;;28.75;16.00;;;;;8.50;81.80;102054.34;5016059;28;45319;-45
2021/12/12 05:18:14;;;;;;;;;14.25;13.00;;;;;8.52;81.43;102056.91;5016509;28;45342;-45
2021/12/12 05:20:47;;;;;;;;;23.25;14.00;;;;;8.51;81.25;102053.38;5016655;28;45363;-47
2021/12/12 05:23:15;;;;;;;;;21.75;19.50;;;;;8.53;81.95;102063.91;5016250;28;46191;-46
2021/12/12 05:25:49;;;;;;;;;20.25;14.25;;;;;8.53;82.17;102053.31;5016288;28;45478;-46
2021/12/12 05:28:18;;;;;;;;;16.00;15.25;;;;;8.55;81.90;102062.00;5016514;28;45361;-46
2021/12/12 05:30:43;;;;;;;;;16.50;13.25;;;;;8.56;81.41;102059.25;5016469;28;45469;-48
2021/12/12 05:33:14;;;;;;;;;13.25;8.00;;;;;8.53;81.54;102062.09;5015946;28;45980;-49
2021/12/12 05:35:40;;;;;;;;;20.25;16.25;;;;;8.52;82.30;102067.53;5016420;28;45355;-48
2021/12/12 05:38:07;;;;;;;;;19.00;15.50;;;;;8.52;81.10;102057.75;5016186;28;45234;-44
2021/12/12 05:40:36;;;;;;;;;12.50;10.75;;;;;8.55;81.86;102073.44;5016371;28;45433;-46
2021/12/12 05:43:04;;;;;;;;;19.50;16.25;;;;;8.55;82.15;102077.91;5015874;28;46991;-46
2021/12/12 05:45:33;;;;;;;;;21.50;14.75;;;;;8.47;81.73;102065.19;5015915;28;45431;-45
2021/12/12 05:47:59;;;;;;;;;19.25;16.25;;;;;8.57;81.69;102081.31;5015970;28;45200;-46
2021/12/12 05:50:25;;;;;;;;;19.75;11.00;;;;;8.58;82.05;102077.72;5019727;28;45301;-46
2021/12/12 05:52:54;;;;;;;;;21.00;18.25;;;;;8.60;82.19;102084.63;5019389;28;45418;-45
2021/12/12 05:55:23;;;;;;;;;19.25;17.50;;;;;8.61;82.50;102078.38;5019181;28;45324;-47
2021/12/12 05:57:56;;;;;;;;;21.00;17.00;;;;;8.60;82.55;102086.44;5019642;28;45402;-48
2021/12/12 06:00:39;;;;;;;;;21.00;17.00;;;;;8.61;82.46;102083.69;5019597;28;45466;-47
2021/12/12 06:03:18;;;;;;;;;28.25;20.75;;;;;8.64;82.42;102091.44;5019023;28;47220;-47
2021/12/12 06:05:43;;;;;;;;;19.75;17.25;;;;;8.64;83.06;102086.13;5019113;28;45307;-46
2021/12/12 06:08:11;;;;;;;;;21.50;13.75;;;;;8.67;82.08;102091.22;5019453;28;45512;-47
2021/12/12 06:10:38;;;;;;;;;22.25;21.75;;;;;8.68;82.14;102089.41;5019416;28;45566;-47
2021/12/12 06:13:09;;;;;;;;;19.25;15.75;;;;;8.68;81.65;102095.59;5019077;28;46390;-46
2021/12/12 06:15:35;;;;;;;;;19.25;13.75;;;;;8.69;82.23;102086.66;5018971;28;45516;-46
2021/12/12 06:18:02;;;;;;;;;27.00;14.00;;;;;8.58;81.83;102072.41;5018874;28;45468;-46
2021/12/12 06:20:28;;;;;;;;;17.00;15.75;;;;;8.65;82.51;102095.78;5019298;28;45407;-47
2021/12/12 06:22:55;;;;;;;;;9.50;7.50;;;;;8.67;82.72;102108.94;5018846;28;45243;-46
2021/12/12 06:25:20;;;;;;;;;20.50;15.00;;;;;8.68;83.10;102116.81;5018914;28;45426;-48
2021/12/12 06:27:46;;;;;;;;;17.25;14.00;;;;;8.73;81.79;102113.84;5019156;28;45402;-48
2021/12/12 06:30:21;;;;;;;;;21.50;17.75;;;;;8.74;82.87;102112.91;5019154;28;45437;-48
2021/12/12 06:32:48;;;;;;;;;17.00;13.25;;;;;8.74;82.02;102115.53;5017871;28;45444;-46
2021/12/12 06:35:15;;;;;;;;;21.50;14.75;;;;;8.73;81.63;102114.69;5018688;28;45302;-46
2021/12/12 06:37:42;;;;;;;;;13.75;13.50;;;;;8.70;82.30;102109.59;5018878;28;45342;-46
2021/12/12 06:40:11;;;;;;;;;16.50;14.00;;;;;8.74;82.07;102112.91;5018324;28;45608;-48
2021/12/12 06:42:36;;;;;;;;;18.25;14.50;;;;;8.75;82.35;102115.44;5018684;28;45281;-48
2021/12/12 06:45:04;;;;;;;;;20.75;15.75;;;;;8.78;81.84;102119.69;5018777;28;45776;-49
2021/12/12 06:47:30;;;;;;;;;23.00;14.50;;;;;8.79;83.02;102118.75;5018526;28;45418;-46
2021/12/12 06:49:58;;;;;;;;;15.25;11.00;;;;;8.82;82.19;102123.00;5018815;28;45493;-46
2021/12/12 06:52:23;;;;;;;;;17.00;13.00;;;;;8.83;82.80;102128.19;5018537;28;46336;-47
2021/12/12 06:54:52;;;;;;;;;17.00;13.50;;;;;8.84;82.27;102132.53;5018282;28;45376;-47
2021/12/12 06:57:18;;;;;;;;;17.75;15.50;;;;;8.83;82.08;102125.53;5018189;28;45402;-49
2021/12/12 06:59:46;;;;;;;;;20.00;17.25;;;;;8.86;82.39;102135.13;5018536;28;45318;-47
2021/12/12 07:02:13;;;;;;;;;14.33;11.33;;;;;8.90;82.24;102145.44;5017883;28;46473;-47
2021/12/12 07:04:43;;;;;;;;;17.33;16.67;;;;;8.92;82.78;102143.50;5018150;28;45388;-45
2021/12/12 07:07:10;;;;;;;;;14.00;13.67;;;;;8.95;82.65;102148.63;5018441;28;45348;-46
2021/12/12 07:09:37;;;;;;;;;14.67;13.33;;;;;8.96;82.30;102142.34;5018546;28;45263;-46
2021/12/12 07:12:07;;;;;;;;;15.33;12.67;;;;;8.96;82.85;102142.34;5018070;28;46374;-44
2021/12/12 07:14:34;;;;;;;;;19.67;13.67;;;;;8.98;82.80;102150.22;5017922;28;45430;-45
2021/12/12 07:17:01;;;;;;;;;14.00;11.00;;;;;9.00;83.07;102150.97;5018089;28;45461;-45
2021/12/12 07:19:27;;;;;;;;;9.33;9.33;;;;;9.02;81.89;102153.50;5018224;28;45424;-45
2021/12/12 07:21:52;;;;;;;;;10.00;9.00;;;;;9.00;83.02;102151.81;5017539;28;46541;-44
2021/12/12 07:24:20;;;;;;;;;16.33;10.67;;;;;9.05;82.39;102158.63;5017810;28;45477;-45
2021/12/12 07:26:45;;;;;;;;;13.00;11.33;;;;;9.08;82.78;102156.63;5018034;28;45317;-49
2021/12/12 07:29:11;;;;;;;;;13.67;9.00;;;;;9.09;82.31;102162.78;5018060;28;45228;-48
2021/12/12 07:31:39;;;;;;;;;15.67;11.67;;;;;9.12;82.82;102160.78;5017887;28;45449;-45
2021/12/12 07:34:09;;;;;;;;;10.00;10.00;;;;;9.12;82.45;102167.88;5017822;28;45533;-46
2021/12/12 07:36:40;;;;;;;;;13.67;11.00;;;;;9.14;82.09;102165.97;5017789;28;45357;-46
2021/12/12 07:39:10;;;;;;;;;15.33;9.00;;;;;9.17;82.87;102168.44;5018005;28;45330;-46
2021/12/12 07:41:36;;;;;;;;;13.00;9.33;;;;;9.15;82.30;102165.88;5017715;28;46182;-46
2021/12/12 07:44:06;;;;;;;;;14.00;13.00;;;;;9.14;81.75;102166.84;5017584;28;45377;-46
2021/12/12 07:46:31;;;;;;;;;14.33;9.00;;;;;9.14;82.36;102180.13;5017624;28;45398;-48
2021/12/12 07:48:57;;;;;;;;;15.33;11.33;;;;;9.17;81.94;102182.53;5017862;28;45370;-46
2021/12/12 07:51:24;;;;;;;;;14.67;10.00;;;;;9.18;83.12;102184.25;5017547;28;46186;-45
2021/12/12 07:53:54;;;;;;;;;15.67;10.00;;;;;9.18;82.80;102172.78;5017694;28;45363;-45
2021/12/12 07:56:22;;;;;;;;;10.67;10.67;;;;;9.20;82.74;102179.69;5017656;28;45362;-47
2021/12/12 07:58:49;;;;;;;;;16.33;9.67;;;;;9.20;82.78;102179.69;5017688;28;45281;-46
2021/12/12 08:01:14;;;;;;;;;13.33;11.00;;;;;9.16;82.72;102169.38;5017211;28;47300;-44
2021/12/12 08:03:41;;;;;;;;;15.67;11.00;;;;;9.22;82.18;102183.09;5017224;28;45301;-46
2021/12/12 08:06:09;;;;;;;;;18.67;9.00;;;;;9.24;82.10;102186.50;5017564;28;45489;-45
2021/12/12 08:08:35;;;;;;;;;12.33;8.67;;;;;9.21;81.92;102176.06;5017716;28;45185;-48
2021/12/12 08:11:03;;;;;;;;;16.33;11.00;;;;;9.25;82.26;102179.38;5016567;28;45955;-47
2021/12/12 08:13:31;;;;;;;;;14.33;10.00;;;;;9.30;82.48;102181.72;5016916;28;45303;-56
2021/12/12 08:15:56;;;;;;;;;14.00;9.00;;;;;9.31;81.97;102186.94;5016722;28;45347;-54
2021/12/12 08:18:22;;;;;;;;;14.33;9.00;;;;;9.33;81.91;102187.69;4999588;28;45468;-56
2021/12/12 08:20:50;;;;;;;;;10.67;9.00;;;;;9.38;82.85;102187.38;5017138;28;46195;-58
2021/12/12 08:23:17;;;;;;;;;10.33;7.33;;;;;9.43;81.83;102199.38;5017207;28;45475;-56
2021/12/12 08:25:46;;;;;;;;;14.33;10.00;;;;;9.48;82.40;102197.28;5017136;28;45405;-52
2021/12/12 08:28:13;;;;;;;;;9.00;9.00;;;;;9.51;81.43;102190.91;5017540;28;45249;-56
2021/12/12 08:30:40;;;;;;;;;16.67;11.00;;;;;9.58;81.88;102196.66;5016946;28;46648;-56
2021/12/12 08:33:06;;;;;;;;;16.33;11.67;;;;;9.62;81.49;102193.69;5016764;28;45171;-57
2021/12/12 08:35:33;;;;;;;;;9.33;9.33;;;;;9.70;81.71;102191.34;5017059;28;45358;-57
2021/12/12 08:38:03;;;;;;;;;9.00;8.67;;;;;9.72;81.51;102202.72;5017135;28;45303;-57
2021/12/12 08:40:35;;;;;;;;;17.33;13.67;;;;;9.74;80.65;102203.47;5016981;28;45424;-61
2021/12/12 08:43:01;;;;;;;;;11.67;10.00;;;;;9.74;81.20;102208.78;5017054;28;45387;-57
2021/12/12 08:45:30;;;;;;;;;18.00;11.00;;;;;9.80;81.07;102206.66;5016921;28;45365;-54
2021/12/12 08:47:58;;;;;;;;;6.33;3.67;;;;;9.82;80.97;102207.38;5017494;28;45462;-56
2021/12/12 08:50:29;;;;;;;;;14.33;11.00;;;;;9.85;81.13;102216.00;5016586;28;46485;-56
2021/12/12 08:52:55;;;;;;;;;14.00;10.67;;;;;9.84;80.73;102209.00;5017058;28;45488;-50
2021/12/12 08:55:32;;;;;;;;;13.00;10.33;;;;;9.86;80.89;102206.22;5017019;28;45561;-55
2021/12/12 08:58:05;;;;;;;;;10.00;9.00;;;;;9.86;80.73;102204.44;5000155;28;45402;-55
2021/12/12 09:00:37;;;;;;;;;11.33;10.00;;;;;9.90;80.51;102211.25;5016819;28;47296;-53
2021/12/12 09:03:04;;;;;;;;;14.67;10.33;;;;;9.89;80.74;102212.19;5016785;28;45474;-54
2021/12/12 09:05:33;;;;;;;;;12.33;10.00;;;;;9.90;80.91;102211.25;5016916;28;45272;-54
2021/12/12 09:08:06;;;;;;;;;11.00;9.00;;;;;9.98;80.35;102222.16;5017779;28;45255;-54
2021/12/12 09:10:43;;;;;;;;;13.67;9.00;;;;;9.98;80.14;102219.50;5017537;28;46292;-52
2021/12/12 09:13:22;;;;;;;;;12.00;10.00;;;;;10.07;80.16;102226.03;5017447;28;45410;-53
2021/12/12 09:15:58;;;;;;;;;15.67;11.00;;;;;10.14;80.37;102234.41;5016692;28;45343;-50
2021/12/12 09:18:54;;;;;;;;;13.33;9.33;;;;;10.16;79.94;102230.69;5016626;28;45490;-53
2021/12/12 09:21:33;;;;;;;;;13.00;10.00;;;;;10.12;79.80;102223.88;4935807;28;46609;-54
2021/12/12 09:24:43;;;;;;;;;11.67;10.00;;;;;10.23;79.84;102234.59;4937611;28;45459;-52
2021/12/12 09:27:14;;;;;;;;;10.33;9.33;;;;;10.29;79.95;102235.19;4939148;28;45469;-53
2021/12/12 09:29:45;;;;;;;;;7.00;6.00;;;;;10.31;79.05;102228.78;4939567;28;45413;-51
2021/12/12 09:32:27;;;;;;;;;10.00;9.33;;;;;10.29;79.54;102235.19;4939150;28;45464;-53
2021/12/12 09:34:58;;;;;;;;;16.00;10.33;;;;;10.30;79.67;102242.19;4938925;28;45570;-51
2021/12/12 09:37:43;;;;;;;;;9.33;8.00;;;;;10.32;79.88;102237.59;4939248;28;45364;-53
2021/12/12 09:40:12;;;;;;;;;15.67;11.67;;;;;10.37;79.35;102230.16;4939423;28;45339;-52
2021/12/12 09:42:43;;;;;;;;;15.00;11.00;;;;;10.37;79.59;102233.69;4939055;28;46389;-49
2021/12/12 09:45:35;;;;;;;;;12.00;8.00;;;;;10.40;79.70;102233.44;4939024;28;45470;-51
2021/12/12 09:51:50;;;;;;;;;10.00;7.00;;;;;10.45;80.01;102235.78;4939169;28;45439;-50
2021/12/12 09:54:53;;;;;;;;;12.33;10.00;;;;;10.44;80.33;102240.25;4939091;28;45432;-54
2021/12/12 09:57:31;;;;;;;;;14.00;11.00;;;;;10.46;79.76;102238.34;4953323;28;45525;-52
2021/12/12 10:00:11;;;;;;;;;10.67;10.67;;;;;10.48;80.35;102240.88;5019480;28;45302;-52
2021/12/12 10:02:53;;;;;;;;;13.67;11.00;;;;;10.54;80.44;102229.81;5019700;28;45395;-51
2021/12/12 10:05:50;;;;;;;;;13.00;13.00;;;;;10.62;80.33;102234.56;5018995;28;46264;-50
2021/12/12 10:08:24;;;;;;;;;15.67;10.33;;;;;10.70;80.39;102240.19;5019316;28;45480;-54
2021/12/12 10:11:02;;;;;;;;;11.67;10.67;;;;;10.70;80.32;102238.41;5019532;28;45250;-55
2021/12/12 10:13:41;;;;;;;;;15.00;11.00;;;;;10.73;80.43;102240.81;5019249;28;45324;-51
2021/12/12 10:16:46;;;;;;;;;10.67;10.67;;;;;10.78;80.05;102236.97;5019003;28;46366;-52
2021/12/12 10:19:41;;;;;;;;;12.33;11.00;;;;;10.84;79.89;102244.53;5018854;28;45358;-50
2021/12/12 10:22:27;;;;;;;;;13.33;13.33;;;;;10.92;79.44;102236.84;5019401;28;45334;-54
2021/12/12 10:25:06;;;;;;;;;11.00;10.67;;;;;10.95;79.26;102239.25;5019433;28;45180;-59
2021/12/12 10:28:00;;;;;;;;;15.33;9.33;;;;;10.99;78.92;102243.38;5018947;28;46002;-54
2021/12/12 10:30:33;;;;;;;;;18.00;11.67;;;;;11.09;78.65;102231.09;4938298;28;45274;-49
2021/12/12 10:33:15;;;;;;;;;12.67;12.33;;;;;11.26;78.66;102242.31;4938525;28;45302;-52
2021/12/12 10:35:52;;;;;;;;;13.00;12.00;;;;;11.32;78.03;102241.84;4938084;28;45864;-52
2021/12/12 10:38:38;;;;;;;;;12.67;10.00;;;;;11.35;78.01;102241.63;4938090;28;46345;-50
2021/12/12 10:41:04;;;;;;;;;11.00;8.67;;;;;11.37;77.97;102237.88;4938174;28;45425;-52
2021/12/12 10:43:43;;;;;;;;;8.33;8.00;;;;;11.42;77.41;102245.53;4938539;28;45376;-51
2021/12/12 10:46:18;;;;;;;;;11.67;10.33;;;;;11.35;77.39;102253.13;4938380;28;45417;-52
2021/12/12 10:49:01;;;;;;;;;13.00;9.67;;;;;11.37;77.58;102239.69;4937971;28;46163;-53
2021/12/12 10:51:34;;;;;;;;;17.00;12.33;;;;;11.49;77.41;102230.78;4938013;28;45440;-55
2021/12/12 10:54:13;;;;;;;;;14.67;12.33;;;;;11.62;76.54;102236.88;4938275;28;45298;-51
2021/12/12 10:56:50;;;;;;;;;9.67;9.67;;;;;11.62;76.61;102228.88;4938414;28;45415;-53
2021/12/12 10:59:23;;;;;;;;;19.00;12.67;;;;;11.63;77.24;102240.38;4937734;28;46339;-52
2021/12/12 11:01:53;;;;;;;;;12.00;10.33;;;;;11.63;76.74;102246.59;4937762;28;45489;-51
2021/12/12 11:04:42;;;;;;;;;13.00;13.00;;;;;11.58;77.03;102251.38;4938142;28;45592;-51
2021/12/12 11:07:16;;;;;;;;;14.67;11.33;;;;;11.56;77.13;102245.34;4970466;28;45549;-54
2021/12/12 11:09:54;;;;;;;;;14.33;11.33;;;;;11.54;77.47;102241.94;5018399;28;45446;-62
2021/12/12 11:12:43;;;;;;;;;11.00;11.00;;;;;11.53;77.29;102242.06;5017614;28;45372;-60
2021/12/12 11:15:14;;;;;;;;;12.33;8.00;;;;;11.51;77.38;102246.66;5017742;28;45386;-63
2021/12/12 11:17:46;;;;;;;;;13.00;11.33;;;;;11.47;77.39;102248.72;5018251;28;45338;-64
2021/12/12 11:20:24;;;;;;;;;11.33;9.67;;;;;11.50;77.23;102235.13;5017900;28;46724;-63
2021/12/12 11:22:57;;;;;;;;;11.00;11.00;;;;;11.49;77.47;102249.44;5017610;28;45429;-63
2021/12/12 11:25:49;;;;;;;;;12.67;10.67;;;;;11.43;77.20;102244.56;5018156;28;45377;-63
2021/12/12 11:28:23;;;;;;;;;17.33;13.67;;;;;11.41;77.72;102244.66;5017302;28;45172;-55
2021/12/12 11:30:56;;;;;;;;;12.33;12.33;;;;;11.45;77.56;102255.94;5017689;28;45293;-65
2021/12/12 11:33:24;;;;;;;;;12.33;12.33;;;;;11.38;77.77;102246.75;5017834;28;45427;-61
2021/12/12 11:35:53;;;;;;;;;18.67;16.00;;;;;11.32;77.67;102250.69;5017711;28;45215;-64
2021/12/12 11:38:31;;;;;;;;;9.67;8.00;;;;;11.30;77.46;102255.31;5018088;28;45354;-60
2021/12/12 11:41:15;;;;;;;;;16.33;16.00;;;;;11.24;78.46;102248.59;5017845;28;46169;-66
2021/12/12 11:43:59;;;;;;;;;12.00;10.67;;;;;11.35;78.41;102242.47;5017577;28;45468;-61
2021/12/12 11:46:38;;;;;;;;;15.67;12.33;;;;;11.47;77.94;102252.22;5016644;28;45493;-62
2021/12/12 11:49:14;;;;;;;;;14.67;13.00;;;;;11.72;77.69;102242.38;5017726;28;45251;-55
2021/12/12 11:51:44;;;;;;;;;21.00;13.00;;;;;11.85;76.65;102240.47;5017617;28;46213;-55
2021/12/12 11:54:45;;;;;;;;;13.67;12.00;;;;;11.87;76.82;102237.69;5017762;28;45347;-63
2021/12/12 11:57:24;;;;;;;;;17.67;13.33;;;;;11.86;76.53;102244.00;4937813;28;45499;-51
2021/12/12 12:00:01;;;;;;;;;18.00;12.00;;;;;11.90;77.09;102240.97;4938029;28;45457;-63
2021/12/12 12:03:12;;;;;;;;;18.00;17.33;;;;;11.96;77.16;102245.81;4937905;28;45537;-64
2021/12/12 12:06:10;;;;;;;;;13.00;12.67;;;;;12.05;77.08;102238.06;4899361;28;45451;-55